Portada
METAR-TAF:

METAR-TAF

Aeroports :

Seyresse

Dacs, França

latitud: 43-41N, longitud: 001-04W, altitud: 32 m

Observació

L'informe es va fer fa 14 hores i 51 minuts, a les 05:00 UTC
Vent 2 kt del Sud
Temperatura 17°C
Humitat 94%
Pressió 1019 hPa
Visibilitat 10 km o més

METAR: LFBY 210500Z AUTO 17002KT 9999 // ////// 17/16 Q1019

Hora: 21:51 (19:51 UTC)


TAF: manca

Observacions i pronòstics meteorològics de més de 4000 aeroports (METAR i TAF).

Les estacions disponibles són els punts grocs i vermells al mapa.

Posi el ratolí al punt desitjat per veure el nom de l'estació.

Feu clic per veure les observacions i els pronòstics meteorològics.

Per canviar el mapa: feu clic els botons verds amb una creu de color negre per apropar; al botó verd amb un guió per allunyar la imatge; o en les fletxes verdes per a mapes adjacents.


METAR-TAF: